createdAt,value
2023-05-14T00:01:16.656Z,58.74
2023-05-14T00:06:20.375Z,62.22
2023-05-14T00:11:24.894Z,70.47
2023-05-14T00:16:28.582Z,62.36
2023-05-14T00:36:23.186Z,59.48
2023-05-14T00:42:01.445Z,60.00
2023-05-14T00:47:06.363Z,71.99
2023-05-14T00:52:12.211Z,66.46
2023-05-14T00:57:41.043Z,60.72
2023-05-14T01:02:44.823Z,56.93
2023-05-14T01:08:13.878Z,59.43
2023-05-14T01:13:54.980Z,62.33
2023-05-14T01:19:00.466Z,68.94
2023-05-14T01:25:00.642Z,62.78
2023-05-14T01:30:23.576Z,57.89
2023-05-14T01:35:31.404Z,59.07
2023-05-14T01:40:37.790Z,59.11
2023-05-14T01:46:19.790Z,59.51
2023-05-14T01:51:23.800Z,66.76
2023-05-14T01:56:27.647Z,70.04
2023-05-14T02:01:32.056Z,65.22
2023-05-14T02:20:49.179Z,60.45
2023-05-14T02:30:40.397Z,67.99
2023-05-14T02:35:44.046Z,64.06
2023-05-14T02:40:47.748Z,61.94
2023-05-14T02:45:51.907Z,61.09
2023-05-14T02:51:04.721Z,60.29
2023-05-14T03:04:46.415Z,57.45
2023-05-14T03:09:50.812Z,59.33
2023-05-14T03:15:41.583Z,62.31
2023-05-14T03:20:45.401Z,67.48
2023-05-14T03:25:52.788Z,62.30
2023-05-14T03:30:56.501Z,58.92
2023-05-14T03:36:50.730Z,59.41
2023-05-14T03:41:54.756Z,64.56
2023-05-14T03:46:58.686Z,66.30
2023-05-14T03:52:02.379Z,61.98
2023-05-14T03:57:06.211Z,58.67
2023-05-14T04:02:10.426Z,56.50
2023-05-14T04:07:14.419Z,58.33
2023-05-14T04:12:18.237Z,61.39
2023-05-14T04:17:21.870Z,69.31
2023-05-14T04:23:48.963Z,66.02
2023-05-14T04:28:53.258Z,62.73
2023-05-14T04:41:31.788Z,58.17
2023-05-14T04:46:35.899Z,59.21
2023-05-14T04:56:08.422Z,66.19
2023-05-14T05:02:44.975Z,61.45
2023-05-14T05:09:30.825Z,56.30
2023-05-14T05:14:34.648Z,57.74
2023-05-14T05:19:43.560Z,61.11
2023-05-14T05:24:49.956Z,63.21
2023-05-14T05:44:44.174Z,58.50
2023-05-14T05:50:38.667Z,58.91
2023-05-14T05:55:43.679Z,59.50
2023-05-14T06:15:04.532Z,53.90
2023-05-14T06:24:24.431Z,55.92
2023-05-14T06:29:28.230Z,55.46
2023-05-14T06:35:02.913Z,53.93
2023-05-14T06:40:07.703Z,53.71
2023-05-14T06:45:14.591Z,53.54
2023-05-14T06:50:18.968Z,52.68
2023-05-14T06:55:35.006Z,51.78
2023-05-14T07:00:38.662Z,51.71
2023-05-14T07:05:49.085Z,48.77
2023-05-14T07:10:53.226Z,48.21
2023-05-14T07:16:00.052Z,47.93
2023-05-14T07:21:07.694Z,47.59
2023-05-14T07:26:11.576Z,45.32
2023-05-14T07:31:15.340Z,43.26
2023-05-14T07:37:40.924Z,41.49
2023-05-14T07:42:45.058Z,39.30
2023-05-14T07:48:40.131Z,38.21
2023-05-14T07:53:44.409Z,36.83
2023-05-14T07:58:48.891Z,34.67
2023-05-14T08:03:53.216Z,35.15
2023-05-14T08:08:57.678Z,35.45
2023-05-14T08:14:01.941Z,31.78
2023-05-14T08:19:06.339Z,30.76
2023-05-14T08:24:11.665Z,29.51
2023-05-14T08:29:16.543Z,28.22
2023-05-14T08:34:52.835Z,29.55
2023-05-14T08:41:05.940Z,30.72
2023-05-14T08:46:26.204Z,30.30
2023-05-14T09:06:57.643Z,28.99
2023-05-14T09:19:03.297Z,28.17
2023-05-14T09:24:11.188Z,28.37
2023-05-14T09:29:32.410Z,27.35
2023-05-14T09:34:41.289Z,27.81
2023-05-14T09:39:52.322Z,27.06
2023-05-14T09:45:02.190Z,25.42
2023-05-14T10:04:27.092Z,26.10
2023-05-14T10:09:40.254Z,24.68
2023-05-14T10:21:47.921Z,24.26
2023-05-14T10:26:52.072Z,24.57
2023-05-14T10:31:56.283Z,24.66
2023-05-14T10:37:03.226Z,23.81
2023-05-14T10:42:09.289Z,22.96
2023-05-14T10:47:14.431Z,24.63
2023-05-14T10:52:20.109Z,23.07
2023-05-14T11:05:00.152Z,23.23
2023-05-14T11:10:13.945Z,23.89
2023-05-14T11:15:48.427Z,23.14
2023-05-14T11:29:21.219Z,23.92
2023-05-14T11:34:27.594Z,23.65
2023-05-14T11:46:37.321Z,24.45
2023-05-14T11:51:41.361Z,24.66
2023-05-14T11:58:24.512Z,25.42
2023-05-14T12:03:33.221Z,26.60
2023-05-14T12:08:39.445Z,27.41
2023-05-14T12:14:40.600Z,28.25
2023-05-14T12:19:48.078Z,28.45
2023-05-14T12:25:00.533Z,27.22
2023-05-14T12:30:20.054Z,26.11
2023-05-14T12:35:31.841Z,26.38
2023-05-14T12:49:13.196Z,27.52
2023-05-14T12:54:17.028Z,27.65
2023-05-14T13:03:45.741Z,27.64
2023-05-14T13:08:52.266Z,27.06
2023-05-14T13:13:57.923Z,27.10
2023-05-14T13:19:01.809Z,25.79
2023-05-14T13:24:08.324Z,25.69
2023-05-14T13:29:13.807Z,26.50
2023-05-14T13:34:17.781Z,26.52
2023-05-14T13:39:27.811Z,26.06
2023-05-14T13:44:32.759Z,25.85
2023-05-14T13:49:36.699Z,25.14
2023-05-14T13:54:43.346Z,24.82
2023-05-14T13:59:47.617Z,24.84
2023-05-14T14:04:52.504Z,24.36
2023-05-14T14:09:56.637Z,24.01
2023-05-14T14:29:44.660Z,23.94
2023-05-14T14:42:17.166Z,22.42
2023-05-14T14:47:21.398Z,22.34
2023-05-14T14:52:27.092Z,22.86
2023-05-14T14:57:31.264Z,23.87
2023-05-14T15:02:38.328Z,22.94
2023-05-14T15:27:44.542Z,18.58
2023-05-14T15:33:51.485Z,18.89
2023-05-14T15:39:53.304Z,19.80
2023-05-14T15:44:58.464Z,20.89
2023-05-14T15:50:33.192Z,20.86
2023-05-14T15:56:54.621Z,20.59
2023-05-14T16:01:58.598Z,20.29
2023-05-14T16:07:05.150Z,19.11
2023-05-14T16:12:10.207Z,19.14
2023-05-14T16:17:14.269Z,19.51
2023-05-14T16:22:17.905Z,20.21
2023-05-14T16:27:36.839Z,20.25
2023-05-14T16:32:45.504Z,20.64
2023-05-14T16:44:57.817Z,21.16
2023-05-14T16:53:31.839Z,21.73
2023-05-14T16:58:49.640Z,22.46
2023-05-14T17:11:27.128Z,23.35
2023-05-14T17:25:59.032Z,25.25
2023-05-14T17:32:18.575Z,25.90
2023-05-14T17:44:34.536Z,27.18
2023-05-14T17:49:38.268Z,27.70
2023-05-14T17:54:42.096Z,28.13
2023-05-14T17:59:45.864Z,28.46
2023-05-14T18:04:50.108Z,28.53
2023-05-14T18:09:54.365Z,29.06
2023-05-14T18:14:58.317Z,29.13
2023-05-14T18:20:02.520Z,29.24
2023-05-14T18:25:07.638Z,29.41
2023-05-14T18:30:16.620Z,30.53
2023-05-14T18:35:46.420Z,32.24
2023-05-14T18:48:17.792Z,34.15
2023-05-14T18:53:22.586Z,36.03
2023-05-14T18:59:16.386Z,36.52
2023-05-14T19:04:20.658Z,36.68
2023-05-14T19:09:28.092Z,37.73
2023-05-14T19:14:31.673Z,38.01
2023-05-14T19:19:35.791Z,38.82
2023-05-14T19:24:43.866Z,40.38
2023-05-14T19:29:52.108Z,41.29
2023-05-14T19:35:48.530Z,40.40
2023-05-14T19:40:58.078Z,41.33
2023-05-14T19:46:09.929Z,42.10
2023-05-14T19:51:17.751Z,42.92
2023-05-14T19:56:30.200Z,43.44
2023-05-14T20:01:35.822Z,43.95
2023-05-14T20:06:40.655Z,44.41
2023-05-14T20:11:44.292Z,45.11
2023-05-14T20:16:49.237Z,46.44
2023-05-14T20:21:53.215Z,48.03
2023-05-14T20:27:37.942Z,48.23
2023-05-14T20:47:34.456Z,49.47
2023-05-14T20:52:41.640Z,49.54
2023-05-14T20:57:46.891Z,51.31
2023-05-14T21:02:50.655Z,51.09
2023-05-14T21:07:54.246Z,51.42
2023-05-14T21:13:23.226Z,51.57
2023-05-14T21:19:11.688Z,51.02
2023-05-14T21:24:17.109Z,52.35
2023-05-14T21:29:20.757Z,52.77
2023-05-14T21:34:24.425Z,53.63
2023-05-14T21:39:28.481Z,52.81
2023-05-14T21:44:32.165Z,53.32
2023-05-14T21:49:36.089Z,54.10
2023-05-14T21:54:40.039Z,53.75
2023-05-14T21:59:43.639Z,54.34
2023-05-14T22:04:48.702Z,55.48
2023-05-14T22:09:52.780Z,56.09
2023-05-14T22:14:56.555Z,56.31
2023-05-14T22:20:01.814Z,56.04
2023-05-14T22:25:06.111Z,56.47
2023-05-14T22:30:10.195Z,57.06
2023-05-14T22:35:17.498Z,57.75
2023-05-14T22:40:21.409Z,58.63
2023-05-14T22:45:29.060Z,58.81
2023-05-14T22:50:33.130Z,58.20
2023-05-14T22:55:42.640Z,57.68
2023-05-14T23:00:46.286Z,58.04
2023-05-14T23:05:50.021Z,58.69
2023-05-14T23:18:15.066Z,58.43
2023-05-14T23:23:18.800Z,58.64
2023-05-14T23:28:22.541Z,59.27
2023-05-14T23:33:26.185Z,60.49
2023-05-14T23:38:29.947Z,61.06
2023-05-14T23:43:34.192Z,61.88
2023-05-14T23:49:30.138Z,69.32
2023-05-14T23:54:33.982Z,69.55
2023-05-14T23:59:39.774Z,66.27
